Time;durP1;ratioP1;P1;durP2;ratioP2;P2;SDS_P1;SDS_P2;PMS_P1;PMS_P2;Temp;Humidity;BMP_temperature;BMP_pressure;BME280_temperature;BME280_humidity;BME280_pressure;Samples;Min_cycle;Max_cycle;Signal;HPM_P1;HPM_P2
2022/11/05 00:09:28;;;;;;;5.87;2.93;;;16.20;83.30;;;;;;5105915;28;20030;-76
2022/11/05 00:09:32;;;;;;;6.28;3.25;;;16.30;83.40;;;;;;5105335;28;20038;-75
2022/11/05 00:17:40;;;;;;;6.75;3.15;;;16.30;82.60;;;;;;5105036;28;20157;-74
2022/11/05 00:20:07;;;;;;;6.85;2.90;;;16.30;82.50;;;;;;5104980;28;20571;-75
2022/11/05 00:25:18;;;;;;;7.28;3.40;;;16.20;83.00;;;;;;5105435;28;20038;-75
2022/11/05 00:27:45;;;;;;;6.78;3.20;;;16.20;82.90;;;;;;5105095;28;20066;-75
2022/11/05 00:30:13;;;;;;;4.88;2.88;;;16.20;83.20;;;;;;5104640;28;20030;-75
2022/11/05 00:32:39;;;;;;;5.90;3.10;;;16.20;82.70;;;;;;5103703;28;20080;-75
2022/11/05 00:35:06;;;;;;;7.15;3.20;;;16.20;82.80;;;;;;5103514;28;20039;-74
2022/11/05 00:37:32;;;;;;;7.80;3.33;;;16.20;82.80;;;;;;5103688;28;20126;-75
2022/11/05 00:39:57;;;;;;;5.05;2.97;;;16.20;82.60;;;;;;5107045;28;20148;-75
2022/11/05 00:45:07;;;;;;;7.78;3.03;;;16.20;82.80;;;;;;5109092;28;20084;-75
2022/11/05 00:50:19;;;;;;;4.95;2.78;;;16.20;82.40;;;;;;5108751;28;20107;-74
2022/11/05 00:52:56;;;;;;;6.03;3.20;;;16.20;82.40;;;;;;5108873;28;20031;-75
2022/11/05 00:55:23;;;;;;;6.53;2.92;;;16.20;82.30;;;;;;5108807;28;20031;-76
2022/11/05 00:57:49;;;;;;;5.68;2.92;;;16.20;82.10;;;;;;5108794;28;20936;-75
2022/11/05 01:00:15;;;;;;;5.57;3.00;;;16.20;83.00;;;;;;5107960;27;20020;-74
2022/11/05 01:02:41;;;;;;;5.63;2.67;;;16.20;82.90;;;;;;5089650;28;20425;-73
2022/11/05 01:05:07;;;;;;;6.32;2.80;;;16.20;82.80;;;;;;5088204;28;20028;-75
2022/11/05 01:07:32;;;;;;;6.18;2.65;;;16.20;82.50;;;;;;5088670;28;20028;-77
2022/11/05 01:09:58;;;;;;;6.18;2.70;;;16.20;82.40;;;;;;5087666;28;20057;-74
2022/11/05 01:12:23;;;;;;;6.25;2.63;;;16.20;82.40;;;;;;5087267;28;20487;-74
2022/11/05 01:14:49;;;;;;;5.35;2.72;;;16.30;82.20;;;;;;5088155;28;20036;-76
2022/11/05 01:17:14;;;;;;;6.20;2.90;;;16.30;82.30;;;;;;5088021;28;20036;-75
2022/11/05 01:19:40;;;;;;;5.55;2.78;;;16.20;81.80;;;;;;5087427;28;20074;-74
2022/11/05 01:22:05;;;;;;;5.72;2.60;;;16.20;81.30;;;;;;5087741;28;20481;-75
2022/11/05 01:24:31;;;;;;;4.95;2.60;;;16.20;81.60;;;;;;5087903;28;20020;-74
2022/11/05 01:26:56;;;;;;;7.13;3.00;;;16.20;81.00;;;;;;5086846;28;20024;-74
2022/11/05 01:29:22;;;;;;;6.07;2.80;;;16.20;81.10;;;;;;5100579;28;20023;-75
2022/11/05 01:31:47;;;;;;;6.10;2.60;;;16.20;80.80;;;;;;5105500;28;20106;-74
2022/11/05 01:34:13;;;;;;;5.95;2.85;;;16.10;81.00;;;;;;5108648;28;20020;-74
2022/11/05 01:36:38;;;;;;;6.75;2.78;;;16.10;81.70;;;;;;5108224;28;20016;-74
2022/11/05 01:39:04;;;;;;;6.45;2.83;;;16.10;81.80;;;;;;5105390;28;20443;-76
2022/11/05 01:41:29;;;;;;;5.40;2.75;;;16.10;81.70;;;;;;5106327;28;20550;-75
2022/11/05 01:44:00;;;;;;;6.80;3.08;;;16.10;81.30;;;;;;5106429;28;20024;-76
2022/11/05 01:46:37;;;;;;;7.07;3.03;;;16.10;81.80;;;;;;5107877;28;20023;-75
2022/11/05 01:49:16;;;;;;;6.88;3.22;;;16.10;82.40;;;;;;5106053;28;20051;-76
2022/11/05 01:51:43;;;;;;;7.30;3.53;;;16.10;81.70;;;;;;5107108;28;20043;-75
2022/11/05 01:54:15;;;;;;;5.60;3.20;;;16.10;81.70;;;;;;5106488;28;20064;-76
2022/11/05 01:56:48;;;;;;;5.78;3.10;;;16.10;81.80;;;;;;5107906;28;20102;-75
2022/11/05 01:59:23;;;;;;;5.55;3.20;;;16.10;81.70;;;;;;5105883;28;20630;-75
2022/11/05 02:01:50;;;;;;;6.43;3.10;;;16.10;81.70;;;;;;5107546;28;20035;-75
2022/11/05 02:04:25;;;;;;;5.43;2.47;;;16.10;81.70;;;;;;5107373;28;20027;-75
2022/11/05 02:06:52;;;;;;;5.00;2.90;;;16.10;81.60;;;;;;5107615;28;20030;-75
2022/11/05 02:09:41;;;;;;;7.15;3.45;;;16.10;81.90;;;;;;5105624;28;20023;-75
2022/11/05 02:12:08;;;;;;;5.85;3.20;;;16.10;81.40;;;;;;5105861;28;20054;-74
2022/11/05 02:14:34;;;;;;;6.72;3.40;;;16.20;81.50;;;;;;5106103;28;20032;-75
2022/11/05 02:17:09;;;;;;;6.70;3.33;;;16.10;81.40;;;;;;5105852;28;20049;-76
2022/11/05 02:19:58;;;;;;;6.53;3.60;;;16.20;81.40;;;;;;5107076;28;20035;-75
2022/11/05 02:22:35;;;;;;;7.22;3.85;;;16.20;81.20;;;;;;5105623;28;20064;-74
2022/11/05 02:25:28;;;;;;;8.35;3.92;;;16.10;80.30;;;;;;5105717;28;20043;-75
2022/11/05 02:28:19;;;;;;;6.35;3.63;;;16.20;80.80;;;;;;5105787;28;20054;-75
2022/11/05 02:31:06;;;;;;;7.40;3.92;;;16.20;80.80;;;;;;5106577;28;20023;-75
2022/11/05 02:33:55;;;;;;;7.15;3.60;;;16.10;80.20;;;;;;5107087;28;20085;-75
2022/11/05 02:37:07;;;;;;;6.15;3.60;;;16.10;80.90;;;;;;5106967;28;20486;-74
2022/11/05 02:39:50;;;;;;;7.18;3.53;;;16.10;81.00;;;;;;5084320;28;20042;-74
2022/11/05 02:42:19;;;;;;;7.78;3.40;;;16.10;81.20;;;;;;5105043;28;20032;-75
2022/11/05 02:45:00;;;;;;;7.78;4.05;;;16.10;81.40;;;;;;5105390;28;20903;-75
2022/11/05 02:47:43;;;;;;;;;;;16.10;81.20;;;;;;5105502;28;20077;-74
2022/11/05 02:50:34;;;;;;;8.13;4.10;;;16.10;81.50;;;;;;5104771;28;20332;-75
2022/11/05 02:53:23;;;;;;;8.23;4.43;;;16.00;81.00;;;;;;5106607;28;20023;-74
2022/11/05 02:55:55;;;;;;;7.72;3.92;;;16.10;80.80;;;;;;5106640;28;20515;-73
2022/11/05 02:58:21;;;;;;;7.75;4.30;;;16.10;80.90;;;;;;5106474;28;20113;-73
2022/11/05 03:00:54;;;;;;;7.72;3.90;;;16.10;80.40;;;;;;5104655;28;20557;-72
2022/11/05 03:03:40;;;;;;;7.15;4.07;;;16.00;80.70;;;;;;5105321;28;20491;-73
2022/11/05 03:06:36;;;;;;;6.93;3.85;;;16.00;80.50;;;;;;5104848;28;20023;-75
2022/11/05 03:09:28;;;;;;;7.57;4.22;;;16.00;80.30;;;;;;5106192;28;20024;-74
2022/11/05 03:12:25;;;;;;;8.50;4.22;;;16.00;80.60;;;;;;5106304;28;20032;-74
2022/11/05 03:15:11;;;;;;;8.85;4.18;;;16.00;80.70;;;;;;5106259;28;20020;-73
2022/11/05 03:18:16;;;;;;;7.53;4.28;;;16.00;80.70;;;;;;5106073;28;20023;-73
2022/11/05 03:20:54;;;;;;;7.70;4.00;;;16.10;80.40;;;;;;5104148;28;20028;-73
2022/11/05 03:23:34;;;;;;;7.97;4.32;;;16.10;80.30;;;;;;5104599;28;20076;-74
2022/11/05 03:26:11;;;;;;;6.93;4.25;;;16.10;79.50;;;;;;5105937;28;20066;-73
2022/11/05 03:28:41;;;;;;;7.47;4.43;;;16.10;78.70;;;;;;5104719;28;20394;-73
2022/11/05 03:31:10;;;;;;;8.02;4.75;;;16.10;78.10;;;;;;5104193;28;20015;-73
2022/11/05 03:33:37;;;;;;;6.53;4.25;;;16.10;78.20;;;;;;5104340;28;20081;-72
2022/11/05 03:36:10;;;;;;;7.97;4.65;;;16.10;78.60;;;;;;5105785;28;20042;-74
2022/11/05 03:38:40;;;;;;;6.82;3.97;;;16.00;79.10;;;;;;5105842;28;20401;-73
2022/11/05 03:41:10;;;;;;;7.43;4.40;;;16.00;78.90;;;;;;5105400;28;20028;-74
2022/11/05 03:43:40;;;;;;;8.57;4.47;;;16.00;79.10;;;;;;5104439;28;20035;-73
2022/11/05 03:46:14;;;;;;;7.90;4.93;;;15.90;79.20;;;;;;5100303;28;20022;-73
2022/11/05 03:48:46;;;;;;;7.63;4.80;;;16.00;79.40;;;;;;5101883;28;20567;-75
2022/11/05 03:51:18;;;;;;;;;;;16.00;79.30;;;;;;5105621;28;20024;-73
2022/11/05 03:53:49;;;;;;;8.77;4.60;;;16.00;79.60;;;;;;5104033;28;19908;-73
2022/11/05 03:56:36;;;;;;;7.65;4.32;;;16.00;79.00;;;;;;5105449;28;20152;-74
2022/11/05 03:59:04;;;;;;;8.02;5.13;;;16.00;78.50;;;;;;5105142;28;20032;-75
2022/11/05 04:01:30;;;;;;;7.68;4.53;;;15.90;78.30;;;;;;5105289;28;20020;-73
2022/11/05 04:03:55;;;;;;;7.70;4.38;;;16.00;78.90;;;;;;5103696;28;20047;-72
2022/11/05 04:14:33;;;;;;;8.35;4.85;;;15.90;79.20;;;;;;5105032;28;20030;-72
2022/11/05 04:17:05;;;;;;;8.10;3.97;;;16.00;79.40;;;;;;5094363;28;20028;-72
2022/11/05 04:25:16;;;;;;;7.75;4.30;;;16.00;79.00;;;;;;5084932;28;20518;-73
2022/11/05 04:27:42;;;;;;;8.55;4.47;;;16.00;79.20;;;;;;5083970;28;20433;-73
2022/11/05 04:30:17;;;;;;;7.70;4.65;;;16.00;79.00;;;;;;5103408;28;20028;-72
2022/11/05 04:32:55;;;;;;;8.15;4.53;;;16.00;78.90;;;;;;5103988;28;20036;-74
2022/11/05 04:35:20;;;;;;;9.38;4.60;;;16.00;78.90;;;;;;5103038;28;20034;-73
2022/11/05 04:37:46;;;;;;;8.40;4.95;;;16.00;78.70;;;;;;5103851;28;20023;-75
2022/11/05 04:40:11;;;;;;;12.30;5.18;;;16.00;78.80;;;;;;5104392;28;20027;-73
2022/11/05 04:42:37;;;;;;;9.20;5.03;;;16.00;78.80;;;;;;5103788;28;20052;-73
2022/11/05 04:45:03;;;;;;;9.20;5.10;;;16.00;78.70;;;;;;5105134;28;20552;-73
2022/11/05 04:47:28;;;;;;;9.13;5.30;;;15.90;78.00;;;;;;5086624;28;20032;-73
2022/11/05 04:49:54;;;;;;;9.73;4.65;;;15.90;78.20;;;;;;5095450;28;20376;-73
2022/11/05 04:52:19;;;;;;;7.82;5.00;;;15.90;77.30;;;;;;5084801;28;20028;-72
2022/11/05 04:54:45;;;;;;;7.38;4.70;;;15.90;77.50;;;;;;5098199;28;20035;-73
2022/11/05 04:57:10;;;;;;;7.63;4.93;;;15.90;77.10;;;;;;5104764;28;20039;-73
2022/11/05 04:59:36;;;;;;;7.10;4.65;;;15.90;77.50;;;;;;5104619;28;20032;-74
2022/11/05 05:02:01;;;;;;;8.52;4.68;;;15.90;78.20;;;;;;5104345;28;20554;-72
2022/11/05 05:04:27;;;;;;;7.18;4.70;;;15.90;78.20;;;;;;5103520;28;20054;-73
2022/11/05 05:06:53;;;;;;;8.38;5.10;;;15.90;79.00;;;;;;5105131;28;20077;-73
2022/11/05 05:09:18;;;;;;;9.52;5.13;;;15.90;78.40;;;;;;5092027;28;20119;-72
2022/11/05 05:11:44;;;;;;;7.18;4.97;;;16.00;78.50;;;;;;5091935;28;20028;-74
2022/11/05 05:14:09;;;;;;;7.15;4.88;;;16.00;78.40;;;;;;5090097;28;20027;-73
2022/11/05 05:16:35;;;;;;;7.90;4.60;;;15.90;78.30;;;;;;5095016;28;20050;-72
2022/11/05 05:19:00;;;;;;;7.50;4.90;;;16.00;77.90;;;;;;5091467;28;20032;-74
2022/11/05 05:21:38;;;;;;;7.63;4.85;;;15.80;77.20;;;;;;5082688;28;20020;-73
2022/11/05 05:24:07;;;;;;;7.50;5.40;;;15.90;77.50;;;;;;5102209;28;20036;-74
2022/11/05 05:26:34;;;;;;;8.10;4.80;;;15.90;77.20;;;;;;5085894;28;20058;-72
2022/11/05 05:29:00;;;;;;;7.82;5.00;;;15.90;77.20;;;;;;5087340;28;20020;-74
2022/11/05 05:31:25;;;;;;;9.50;5.43;;;15.80;76.60;;;;;;5091514;28;20031;-73
2022/11/05 05:33:54;;;;;;;7.45;4.60;;;15.90;77.40;;;;;;5102775;28;20177;-73
2022/11/05 05:36:21;;;;;;;7.88;5.05;;;15.80;77.30;;;;;;5106549;28;20072;-72
2022/11/05 05:38:47;;;;;;;7.50;4.70;;;15.80;77.40;;;;;;5092973;28;20482;-73
2022/11/05 05:41:12;;;;;;;7.30;4.90;;;15.90;77.80;;;;;;5087069;28;20054;-73
2022/11/05 05:43:38;;;;;;;7.80;5.50;;;15.80;77.70;;;;;;5087175;28;21020;-71
2022/11/05 05:46:06;;;;;;;7.70;5.45;;;15.90;77.90;;;;;;5090248;28;20071;-72
2022/11/05 05:48:32;;;;;;;9.35;5.30;;;15.90;77.80;;;;;;5101612;28;20023;-73
2022/11/05 05:51:09;;;;;;;7.70;5.00;;;15.90;77.70;;;;;;5107882;28;20019;-74
2022/11/05 05:53:35;;;;;;;7.72;4.97;;;15.90;77.60;;;;;;5107560;28;20032;-72
2022/11/05 05:56:01;;;;;;;7.70;5.35;;;15.90;77.60;;;;;;5107674;28;20024;-73
2022/11/05 05:58:32;;;;;;;7.95;5.63;;;15.90;77.20;;;;;;5107428;28;20128;-72
2022/11/05 06:01:03;;;;;;;7.32;5.30;;;15.90;76.60;;;;;;5098958;28;20057;-73
2022/11/05 06:03:29;;;;;;;8.32;5.50;;;15.80;76.60;;;;;;5087357;28;20071;-76
2022/11/05 06:06:11;;;;;;;8.00;5.45;;;15.80;76.30;;;;;;5087195;28;20063;-75
2022/11/05 06:08:37;;;;;;;8.25;5.63;;;15.80;76.50;;;;;;5085762;28;20111;-75
2022/11/05 06:11:04;;;;;;;7.47;4.80;;;15.80;76.40;;;;;;5098090;28;20107;-74
2022/11/05 06:13:30;;;;;;;6.97;4.68;;;15.80;76.60;;;;;;5105803;28;20028;-74
2022/11/05 06:16:04;;;;;;;7.50;5.30;;;15.80;77.30;;;;;;5095588;28;20072;-76
2022/11/05 06:18:31;;;;;;;8.45;5.07;;;15.80;77.70;;;;;;5106868;28;20034;-74
2022/11/05 06:21:05;;;;;;;7.65;5.55;;;15.80;77.60;;;;;;5093500;28;20398;-74
2022/11/05 06:23:31;;;;;;;7.57;5.55;;;15.80;77.50;;;;;;5084436;28;20031;-76
2022/11/05 06:26:15;;;;;;;7.72;5.22;;;15.90;77.90;;;;;;5097311;28;20074;-73
2022/11/05 06:28:41;;;;;;;7.35;5.10;;;15.90;77.30;;;;;;5094149;28;20091;-76
2022/11/05 06:31:11;;;;;;;8.13;5.95;;;15.90;77.00;;;;;;5093597;28;20127;-74
2022/11/05 06:33:37;;;;;;;7.63;5.43;;;15.80;76.60;;;;;;5105496;28;20483;-75
2022/11/05 06:36:05;;;;;;;16.73;6.07;;;15.80;77.00;;;;;;5093228;28;20042;-74
2022/11/05 06:38:33;;;;;;;8.98;5.47;;;15.80;76.00;;;;;;5084655;28;20039;-75
2022/11/05 06:40:59;;;;;;;13.77;5.97;;;15.80;76.00;;;;;;5090880;28;20039;-73
2022/11/05 06:43:26;;;;;;;12.63;5.95;;;15.80;76.60;;;;;;5090612;28;20108;-76
2022/11/05 06:45:51;;;;;;;13.75;6.25;;;15.80;76.20;;;;;;5084984;28;20559;-75
2022/11/05 06:48:17;;;;;;;9.35;6.13;;;15.80;76.70;;;;;;5086549;28;20031;-75
2022/11/05 06:50:44;;;;;;;9.25;5.57;;;15.80;76.70;;;;;;5084558;28;20122;-74
2022/11/05 06:53:09;;;;;;;10.80;6.43;;;15.90;77.00;;;;;;5086777;28;20032;-75
2022/11/05 06:55:35;;;;;;;8.30;5.07;;;15.90;77.00;;;;;;5084800;28;20081;-74
2022/11/05 06:58:00;;;;;;;12.02;5.70;;;15.90;77.00;;;;;;5086482;28;20081;-75
2022/11/05 07:00:26;;;;;;;9.27;5.68;;;15.90;77.10;;;;;;5084285;28;20028;-75
2022/11/05 07:02:52;;;;;;;12.00;5.57;;;16.00;77.20;;;;;;5084467;28;20081;-75
2022/11/05 07:05:17;;;;;;;9.25;4.95;;;15.90;77.00;;;;;;5084317;28;20368;-75
2022/11/05 07:07:44;;;;;;;8.98;4.93;;;16.00;77.00;;;;;;5084301;28;20031;-75
2022/11/05 07:10:15;;;;;;;10.88;5.32;;;15.90;77.00;;;;;;5087934;28;20031;-75
2022/11/05 07:12:41;;;;;;;8.80;5.38;;;15.90;77.10;;;;;;5098870;28;20020;-75
2022/11/05 07:15:08;;;;;;;11.70;5.75;;;15.90;77.30;;;;;;5105930;28;20490;-75
2022/11/05 07:17:33;;;;;;;10.90;5.55;;;15.90;77.40;;;;;;5104274;28;20478;-74
2022/11/05 07:19:59;;;;;;;9.60;5.30;;;15.90;77.40;;;;;;5104180;28;20028;-75
2022/11/05 07:22:24;;;;;;;9.10;5.13;;;15.90;77.60;;;;;;5104351;28;20035;-74
2022/11/05 07:24:50;;;;;;;9.15;5.68;;;15.90;77.90;;;;;;5105792;28;20027;-76
2022/11/05 07:27:16;;;;;;;7.55;5.18;;;15.90;78.00;;;;;;5104140;28;20684;-73
2022/11/05 07:29:41;;;;;;;9.10;4.68;;;15.90;78.10;;;;;;5105395;28;20406;-74
2022/11/05 07:32:07;;;;;;;9.35;4.90;;;15.90;78.20;;;;;;5105738;28;20106;-75
2022/11/05 07:34:33;;;;;;;8.82;4.93;;;15.90;78.20;;;;;;5105633;28;20611;-75
2022/11/05 07:36:58;;;;;;;8.15;4.78;;;15.90;78.40;;;;;;5105828;28;20567;-75
2022/11/05 07:39:24;;;;;;;8.13;4.80;;;15.90;78.50;;;;;;5105032;28;20111;-75
2022/11/05 07:41:56;;;;;;;8.57;4.55;;;15.90;78.50;;;;;;5105600;28;20075;-75
2022/11/05 07:44:22;;;;;;;6.82;4.22;;;15.90;78.50;;;;;;5106126;28;20577;-79
2022/11/05 07:46:48;;;;;;;7.70;4.70;;;15.90;78.50;;;;;;5105378;28;20028;-75
2022/11/05 07:49:14;;;;;;;7.90;4.65;;;16.00;78.60;;;;;;5104756;28;20035;-75
2022/11/05 07:51:39;;;;;;;7.57;4.30;;;16.00;78.60;;;;;;5096050;28;20069;-75
2022/11/05 07:54:05;;;;;;;8.98;5.20;;;16.00;78.40;;;;;;5086178;28;20032;-76
2022/11/05 07:56:30;;;;;;;7.30;4.35;;;16.00;78.40;;;;;;5084867;28;20028;-76
2022/11/05 07:58:56;;;;;;;8.50;4.95;;;16.00;78.40;;;;;;5084739;28;20058;-75
2022/11/05 08:01:22;;;;;;;7.68;4.57;;;16.00;78.60;;;;;;5083013;28;20106;-75
2022/11/05 08:03:47;;;;;;;8.68;4.28;;;15.90;78.60;;;;;;5084683;28;20077;-75
2022/11/05 08:06:13;;;;;;;6.72;4.15;;;15.90;79.20;;;;;;5084592;28;20506;-75
2022/11/05 08:08:38;;;;;;;7.47;4.65;;;15.90;78.80;;;;;;5084765;28;20099;-75
2022/11/05 08:11:05;;;;;;;7.25;4.50;;;15.90;78.80;;;;;;5089442;28;20093;-76
2022/11/05 08:13:32;;;;;;;7.15;4.40;;;15.90;78.90;;;;;;5092413;28;20035;-75
2022/11/05 08:15:57;;;;;;;7.53;4.47;;;15.90;79.00;;;;;;5097809;28;20150;-75
2022/11/05 08:18:30;;;;;;;6.88;4.40;;;15.90;79.10;;;;;;5104258;28;20641;-79
2022/11/05 08:20:56;;;;;;;6.60;4.30;;;15.90;79.20;;;;;;5105230;28;20019;-77
2022/11/05 08:23:21;;;;;;;7.18;4.63;;;15.90;79.20;;;;;;5104470;28;20030;-75
2022/11/05 08:25:47;;;;;;;7.05;4.50;;;15.90;79.20;;;;;;5104909;28;20020;-75
2022/11/05 08:28:12;;;;;;;7.70;4.28;;;15.90;79.20;;;;;;5103233;28;20078;-75
2022/11/05 08:30:38;;;;;;;11.35;4.72;;;15.90;79.30;;;;;;5104541;28;20023;-75
2022/11/05 08:33:09;;;;;;;7.78;4.15;;;15.90;79.10;;;;;;5103377;28;20035;-75
2022/11/05 08:35:36;;;;;;;7.22;4.70;;;15.90;79.30;;;;;;5103570;28;20051;-75
2022/11/05 08:38:04;;;;;;;9.32;4.28;;;15.90;79.20;;;;;;5104765;28;20057;-75
2022/11/05 08:40:32;;;;;;;7.50;4.20;;;15.90;79.20;;;;;;5104260;28;20051;-77
2022/11/05 08:42:59;;;;;;;8.32;5.22;;;15.90;79.20;;;;;;5095822;28;20035;-75
2022/11/05 08:45:25;;;;;;;9.15;5.18;;;16.00;79.20;;;;;;5091490;28;20115;-73
2022/11/05 08:48:01;;;;;;;10.35;5.28;;;16.00;79.00;;;;;;5084615;28;20047;-74
2022/11/05 08:50:27;;;;;;;9.32;5.72;;;16.00;78.80;;;;;;5102710;28;20487;-74
2022/11/05 08:52:52;;;;;;;8.52;5.75;;;16.00;78.70;;;;;;5099707;28;20471;-74
2022/11/05 08:55:18;;;;;;;9.40;5.53;;;16.00;78.80;;;;;;5097686;28;20015;-74
2022/11/05 08:57:47;;;;;;;9.27;5.65;;;16.00;78.90;;;;;;5104562;28;20461;-74
2022/11/05 09:00:14;;;;;;;11.02;5.38;;;16.00;78.90;;;;;;5090852;28;20028;-75
2022/11/05 09:02:40;;;;;;;9.18;5.57;;;16.00;79.00;;;;;;5086379;28;20028;-74
2022/11/05 09:05:06;;;;;;;9.40;5.65;;;16.00;79.10;;;;;;5086679;28;20024;-74
2022/11/05 09:07:31;;;;;;;10.25;5.30;;;16.00;79.10;;;;;;5086602;28;20028;-75
2022/11/05 09:09:57;;;;;;;9.75;5.55;;;16.00;78.70;;;;;;5087832;28;20028;-75
2022/11/05 09:12:22;;;;;;;8.38;5.15;;;16.00;79.20;;;;;;5101118;28;20028;-74
2022/11/05 09:14:48;;;;;;;8.05;5.30;;;16.00;79.40;;;;;;5106979;28;20028;-75
2022/11/05 09:17:19;;;;;;;8.57;5.20;;;16.10;79.40;;;;;;5107062;28;20035;-75
2022/11/05 09:19:45;;;;;;;11.90;5.85;;;16.00;79.20;;;;;;5089354;28;20028;-74
2022/11/05 09:22:11;;;;;;;9.27;5.93;;;16.10;79.40;;;;;;5084795;28;20126;-75
2022/11/05 09:24:41;;;;;;;8.10;5.50;;;16.10;79.40;;;;;;5084517;28;20213;-74
2022/11/05 09:27:14;;;;;;;9.27;5.72;;;16.10;79.40;;;;;;5087418;28;20077;-76
2022/11/05 09:29:40;;;;;;;9.15;5.78;;;16.10;79.30;;;;;;5086227;28;20035;-75
2022/11/05 09:32:06;;;;;;;9.52;5.75;;;16.10;79.30;;;;;;5087990;28;20020;-75
2022/11/05 09:34:32;;;;;;;9.32;5.85;;;16.10;79.20;;;;;;5089665;28;20225;-76
2022/11/05 09:36:58;;;;;;;8.93;6.43;;;16.10;79.20;;;;;;5090623;28;20024;-78
2022/11/05 09:39:24;;;;;;;8.43;5.75;;;16.10;79.20;;;;;;5093527;28;20024;-73
2022/11/05 09:41:52;;;;;;;8.40;5.50;;;16.10;79.10;;;;;;5103921;28;20054;-75
2022/11/05 09:44:22;;;;;;;9.15;5.93;;;16.30;79.20;;;;;;5107998;28;20039;-75
2022/11/05 09:46:58;;;;;;;9.02;5.53;;;16.20;79.00;;;;;;5108263;28;20024;-75
2022/11/05 09:49:40;;;;;;;9.30;6.30;;;16.30;78.90;;;;;;5125160;27;20079;-76
2022/11/05 09:52:17;;;;;;;8.50;5.78;;;16.30;78.80;;;;;;5128362;27;20393;-75
2022/11/05 09:54:42;;;;;;;9.70;6.22;;;16.40;78.70;;;;;;5128323;27;20400;-75
2022/11/05 09:57:16;;;;;;;8.98;5.85;;;16.40;78.60;;;;;;5127102;27;20015;-74
2022/11/05 09:59:45;;;;;;;10.60;6.40;;;16.50;78.50;;;;;;5128212;27;20091;-75
2022/11/05 10:02:28;;;;;;;9.00;6.25;;;16.50;78.50;;;;;;5128059;27;20110;-75
2022/11/05 10:04:57;;;;;;;9.52;5.82;;;16.50;78.30;;;;;;5127025;27;20031;-74
2022/11/05 10:07:27;;;;;;;8.63;5.70;;;16.60;78.20;;;;;;5126961;27;20034;-73
2022/11/05 10:09:59;;;;;;;9.00;5.63;;;16.60;78.10;;;;;;5126221;27;20023;-77
2022/11/05 10:12:30;;;;;;;9.73;6.30;;;16.60;78.10;;;;;;5100023;27;20031;-76
2022/11/05 10:15:11;;;;;;;10.38;6.03;;;16.60;77.90;;;;;;5101127;28;20161;-80
2022/11/05 10:17:41;;;;;;;10.00;6.57;;;16.60;77.80;;;;;;5104384;28;20088;-76
2022/11/05 10:20:30;;;;;;;12.35;6.80;;;16.60;77.80;;;;;;5106699;28;20110;-75
2022/11/05 10:22:59;;;;;;;9.05;6.35;;;16.70;78.00;;;;;;5106750;28;20028;-77
2022/11/05 10:25:36;;;;;;;10.18;6.43;;;16.70;77.90;;;;;;5099029;28;20040;-77
2022/11/05 10:28:03;;;;;;;10.27;6.10;;;16.70;77.90;;;;;;5093721;28;20066;-77
2022/11/05 10:30:29;;;;;;;9.48;6.70;;;16.70;77.90;;;;;;5106301;28;20114;-75
2022/11/05 10:32:59;;;;;;;12.75;7.30;;;16.70;77.90;;;;;;5089247;28;20126;-74
2022/11/05 10:35:28;;;;;;;15.40;7.45;;;16.70;77.50;;;;;;5096468;28;20040;-76
2022/11/05 10:37:55;;;;;;;13.90;7.97;;;16.80;77.40;;;;;;5104411;28;20038;-75
2022/11/05 10:40:40;;;;;;;13.45;7.43;;;16.80;77.40;;;;;;5106201;28;20031;-74
2022/11/05 10:43:16;;;;;;;12.35;7.20;;;16.90;77.40;;;;;;5105470;28;20454;-75
2022/11/05 10:46:05;;;;;;;14.48;7.25;;;16.90;77.30;;;;;;5094381;28;20027;-76
2022/11/05 10:49:04;;;;;;;12.05;6.80;;;16.90;77.20;;;;;;5095282;28;20031;-73
2022/11/05 10:51:32;;;;;;;9.77;6.97;;;17.00;77.10;;;;;;5086345;28;20023;-75
2022/11/05 10:54:08;;;;;;;10.82;7.00;;;17.00;76.90;;;;;;5099543;28;20042;-74
2022/11/05 10:56:36;;;;;;;10.23;7.20;;;17.10;76.90;;;;;;5101294;28;20028;-74
2022/11/05 10:59:04;;;;;;;12.45;8.05;;;17.10;76.90;;;;;;5095543;28;20031;-75
2022/11/05 11:01:31;;;;;;;11.48;6.90;;;17.00;76.90;;;;;;5097026;28;20019;-74
2022/11/05 11:04:19;;;;;;;10.73;6.93;;;17.00;76.90;;;;;;5100980;28;20035;-75
2022/11/05 11:06:50;;;;;;;10.52;6.90;;;17.00;76.90;;;;;;5093421;28;20619;-75
2022/11/05 11:09:23;;;;;;;10.20;7.30;;;17.10;77.00;;;;;;5097854;27;20027;-76
2022/11/05 11:12:00;;;;;;;10.57;6.82;;;17.00;77.10;;;;;;5096177;28;20674;-74
2022/11/05 11:14:26;;;;;;;9.57;6.68;;;17.00;77.30;;;;;;5093010;28;20106;-75
2022/11/05 11:16:56;;;;;;;11.20;6.90;;;17.00;77.50;;;;;;5096348;28;20127;-75
2022/11/05 11:19:28;;;;;;;10.60;6.82;;;17.00;77.60;;;;;;5100362;28;20027;-75
2022/11/05 11:22:02;;;;;;;9.68;6.53;;;16.90;77.90;;;;;;5089167;28;20034;-75
2022/11/05 11:24:46;;;;;;;9.80;6.35;;;17.00;78.10;;;;;;5085120;28;20085;-76
2022/11/05 11:27:13;;;;;;;12.70;7.05;;;16.80;78.10;;;;;;5098812;28;20057;-74
2022/11/05 11:29:42;;;;;;;18.27;7.22;;;16.80;78.40;;;;;;5084761;28;20032;-76
2022/11/05 11:32:14;;;;;;;19.70;7.93;;;16.80;78.30;;;;;;5095515;28;20016;-75
2022/11/05 11:34:41;;;;;;;24.92;8.07;;;16.80;78.20;;;;;;5104340;28;20596;-76
2022/11/05 11:37:09;;;;;;;22.58;7.45;;;16.80;78.20;;;;;;5104753;28;20095;-75
2022/11/05 11:39:37;;;;;;;20.30;7.43;;;16.90;78.20;;;;;;5103856;28;20062;-75
2022/11/05 11:42:10;;;;;;;16.23;6.85;;;16.90;78.20;;;;;;5104769;28;20026;-76
2022/11/05 11:44:41;;;;;;;19.00;7.22;;;16.90;78.10;;;;;;5104362;28;20020;-76
2022/11/05 11:47:17;;;;;;;20.80;7.75;;;17.00;78.20;;;;;;5105923;28;20083;-77
2022/11/05 11:49:54;;;;;;;13.80;6.63;;;16.90;78.10;;;;;;5125370;27;20028;-76
2022/11/05 11:52:36;;;;;;;13.77;6.53;;;17.00;78.00;;;;;;5126011;27;20057;-75
2022/11/05 11:55:10;;;;;;;14.43;6.75;;;17.00;78.00;;;;;;5124658;27;20038;-77
2022/11/05 11:57:45;;;;;;;12.63;6.30;;;17.10;78.00;;;;;;5125927;27;20063;-76
2022/11/05 12:00:12;;;;;;;16.15;7.00;;;17.10;78.00;;;;;;5125548;27;20098;-76
2022/11/05 12:02:46;;;;;;;15.68;6.60;;;17.00;78.00;;;;;;5125811;27;20039;-76
2022/11/05 12:05:17;;;;;;;13.32;7.15;;;17.00;78.00;;;;;;5125976;27;20029;-74
2022/11/05 12:08:18;;;;;;;12.25;6.30;;;17.00;78.10;;;;;;5120915;27;20495;-76
2022/11/05 12:10:58;;;;;;;12.48;5.93;;;17.00;78.30;;;;;;5044942;28;20036;-75
2022/11/05 12:13:44;;;;;;;11.90;5.80;;;17.00;78.30;;;;;;5099693;28;20046;-74
2022/11/05 12:16:40;;;;;;;11.45;6.35;;;17.00;78.30;;;;;;5103188;28;20520;-74
2022/11/05 12:19:30;;;;;;;13.80;5.93;;;17.00;78.30;;;;;;5102624;28;20036;-74
2022/11/05 12:22:17;;;;;;;10.65;5.85;;;17.00;78.40;;;;;;5103116;28;20032;-77
2022/11/05 12:24:51;;;;;;;10.05;6.10;;;17.00;78.50;;;;;;5092902;28;20202;-75
2022/11/05 12:27:50;;;;;;;11.10;5.70;;;17.00;78.50;;;;;;5084817;28;20097;-75
2022/11/05 12:33:47;;;;;;;14.68;6.05;;;16.90;78.60;;;;;;5089608;28;20047;-76
2022/11/05 12:36:36;;;;;;;11.02;5.90;;;16.90;78.60;;;;;;5099799;28;20027;-75
2022/11/05 12:39:32;;;;;;;13.48;5.80;;;16.90;78.60;;;;;;5097363;28;20077;-74
2022/11/05 12:42:06;;;;;;;10.68;5.70;;;16.90;78.80;;;;;;5092870;28;20494;-75
2022/11/05 12:44:45;;;;;;;13.30;5.68;;;16.90;78.80;;;;;;5095687;28;20426;-75
2022/11/05 12:47:42;;;;;;;13.27;5.82;;;16.90;78.80;;;;;;5092888;28;20035;-74
2022/11/05 12:50:14;;;;;;;11.23;5.55;;;16.90;78.70;;;;;;5089201;27;20046;-75
2022/11/05 12:52:50;;;;;;;12.05;5.78;;;16.90;78.60;;;;;;5128165;27;20027;-78
2022/11/05 12:55:22;;;;;;;11.95;5.82;;;16.90;78.50;;;;;;5128178;27;20383;-75
2022/11/05 12:57:52;;;;;;;10.45;6.00;;;16.90;78.40;;;;;;5128983;27;20023;-75
2022/11/05 13:00:23;;;;;;;11.23;5.75;;;16.90;78.40;;;;;;5122085;27;20080;-74
2022/11/05 13:03:04;;;;;;;9.68;5.43;;;16.80;78.40;;;;;;5108158;28;20036;-76
2022/11/05 13:05:34;;;;;;;9.43;5.15;;;16.80;78.40;;;;;;5107324;28;20057;-75
2022/11/05 13:08:24;;;;;;;12.32;5.80;;;16.80;78.50;;;;;;5107329;28;20078;-75
2022/11/05 13:10:56;;;;;;;11.38;5.65;;;16.70;78.50;;;;;;5106691;28;20051;-76
2022/11/05 13:13:40;;;;;;;;;;;16.70;78.50;;;;;;5107835;28;20122;-75
2022/11/05 13:16:20;;;;;;;8.73;5.30;;;16.70;78.50;;;;;;5108665;28;20258;-75
2022/11/05 13:18:50;;;;;;;11.00;5.45;;;16.70;78.50;;;;;;5108416;28;20039;-75
2022/11/05 13:21:19;;;;;;;9.63;5.35;;;16.70;78.60;;;;;;5107981;28;20383;-75
2022/11/05 13:24:00;;;;;;;8.73;5.32;;;16.60;78.60;;;;;;5108349;28;20042;-75
2022/11/05 13:26:29;;;;;;;11.25;5.47;;;16.60;78.60;;;;;;5108113;28;20024;-75
2022/11/05 13:29:04;;;;;;;11.10;5.68;;;16.60;78.60;;;;;;5127902;27;20042;-76
2022/11/05 13:31:40;;;;;;;10.20;5.10;;;16.60;78.60;;;;;;5128598;27;20019;-75
2022/11/05 13:34:10;;;;;;;10.60;5.47;;;16.60;78.50;;;;;;5128380;27;20056;-75
2022/11/05 13:39:52;;;;;;;12.95;5.47;;;16.50;78.40;;;;;;5107902;28;20051;-76
2022/11/05 13:42:46;;;;;;;8.13;4.80;;;16.50;78.40;;;;;;5107638;27;20055;-74
2022/11/05 13:45:31;;;;;;;10.38;4.97;;;16.50;78.40;;;;;;5106289;28;20110;-74
2022/11/05 13:48:30;;;;;;;9.82;5.40;;;16.60;78.40;;;;;;5105187;28;20065;-75